首页
METAR-TAF:

METAR-TAF

机场 :

敖德薩, 乌克兰

敖德薩國際機場

纬度: 46-26N, 经度: 030-46E, 海拔: 42米

当前天气观测

该预报发布于21分钟前的22:00 UTC
风速6节,风向
温度 13°C
湿度 88%
气压 1013 hPa
能见度10公里或以上
1500米以下无云,无积雨云

METAR: UKOO 252200Z 19003MPS CAVOK 13/11 Q1013 R16/090060 NOSIG

时间: 01:21 (22:21 UTC)

预报

该预报发布于5小时和11分钟前的17:10 UTC
预报有效从25日的 18点(UTC)到 26日的 18点(UTC)
风速6节,风向南转西南
能見度: 2100
多云层高于700英尺
散云层高于1500英尺, 积雨云.
轻雾
几率 40% :
短暂存在
从 25日的 20点(UTC)到 26日的 05点(UTC)
能見度: 0300
层高于200英尺
成为
从 26日的 06点(UTC)到 26日的 07点(UTC)
风速10节,风向,有时为23节阵风
能見度: 6000

TAF: UKOO 251710Z 2518/2618 20003MPS 2100 BR BKN007 SCT015CB PROB40 TEMPO 2520/2605 0300 FG VV002 BECMG 2606/2607 19005G12MPS 6000 NSW

超过4000个机场的气象观测和天气预报(METAR&TAF报告)。

可查询的气象台以黄色和红色小点在地图上表示。

将鼠标移到小点上方,可查看气象台名称。

然后点击查看天气观测和预报。

如需切换地图:点击带黑十字的绿色按钮放大地图;点击带横线的绿色按钮缩小地图;或者点击绿色箭头查看邻近地区的地图。


METAR-TAF: